Terminal Aerodrome Forecast
Issued by NWS Sterling, VA

Current Version | Previous Version | Text Only | Print | Product List | Glossary Off
Versions: 1 2 3 4 5 6 7 8 9 10 11 12 13 14 15 16 17 18 19 20 21 22 23 24 25 26 27 28

000
FTUS41 KLWX 030854 AAA
TAFIAD
TAF AMD
KIAD 030854Z 0309/0412 VRB03KT 5SM BR SKC
     FM031300 32004KT P6SM FEW090
     FM031600 34007KT P6SM SCT060
     FM032200 34006KT P6SM BKN060=

USA.gov is the U.S. government's official web portal to all federal, state and local government web resources and services.